Time;durP1;ratioP1;P1;durP2;ratioP2;P2;SDS_P1;SDS_P2;PMS_P1;PMS_P2;Temp;Humidity;BMP_temperature;BMP_pressure;BME280_temperature;BME280_humidity;BME280_pressure;Samples;Min_cycle;Max_cycle;Signal;HPM_P1;HPM_P2
2021/09/10 00:01:38;;;;;;;11.10;8.95;;;;;;;21.38;68.70;100137.06;5070156;28;20063;-80
2021/09/10 00:04:05;;;;;;;11.70;8.95;;;;;;;21.38;68.81;100139.75;5069967;28;20055;-80
2021/09/10 00:06:33;;;;;;;10.38;8.80;;;;;;;21.38;68.90;100147.84;5074033;28;20048;-80
2021/09/10 00:09:02;;;;;;;11.15;9.25;;;;;;;21.38;69.21;100147.84;5068437;28;20112;-80
2021/09/10 00:11:30;;;;;;;;;;;;;;;21.35;69.07;100148.97;5069576;28;20053;-80
2021/09/10 00:13:56;;;;;;;10.88;8.95;;;;;;;21.34;69.41;100154.50;5085918;28;19926;-80
2021/09/10 00:16:23;;;;;;;13.25;9.48;;;;;;;21.32;69.55;100154.66;5071079;28;20052;-81
2021/09/10 00:18:50;;;;;;;11.05;8.57;;;;;;;21.30;69.44;100151.25;5070738;28;20114;-81
2021/09/10 00:21:18;;;;;;;9.95;8.88;;;;;;;21.27;69.56;100151.53;5069441;28;20052;-81
2021/09/10 00:23:44;;;;;;;12.35;9.18;;;;;;;21.26;69.50;100149.84;5053605;28;20052;-81
2021/09/10 00:26:11;;;;;;;10.70;8.82;;;;;;;21.22;69.95;100143.06;5053387;28;20051;-81
2021/09/10 00:28:39;;;;;;;10.57;8.70;;;;;;;21.23;70.10;100147.47;5050298;28;20037;-81
2021/09/10 00:31:06;;;;;;;9.95;8.82;;;;;;;21.20;70.10;100146.91;5079265;28;20071;-81
2021/09/10 00:33:34;;;;;;;12.73;9.70;;;;;;;21.20;70.24;100147.75;5088095;28;20049;-80
2021/09/10 00:36:01;;;;;;;11.93;8.68;;;;;;;21.20;70.19;100150.44;5074450;28;20128;-81
2021/09/10 00:38:30;;;;;;;10.73;9.15;;;;;;;21.20;70.20;100152.28;5073639;28;20163;-80
2021/09/10 00:40:58;;;;;;;10.75;8.75;;;;;;;21.18;70.44;100149.69;5065060;28;20068;-81
2021/09/10 00:43:25;;;;;;;12.27;9.38;;;;;;;21.17;70.34;100142.59;5087228;28;20044;-80
2021/09/10 00:45:57;;;;;;;16.15;9.10;;;;;;;21.14;70.57;100145.59;5081706;28;20052;-81
2021/09/10 00:48:23;;;;;;;9.20;8.20;;;;;;;21.14;70.25;100148.28;5066469;28;20629;-81
2021/09/10 00:50:50;;;;;;;11.13;8.68;;;;;;;21.15;70.42;100154.50;5069842;28;20060;-81
2021/09/10 00:53:17;;;;;;;12.23;9.10;;;;;;;21.14;70.68;100153.66;5066844;28;20048;-81
2021/09/10 00:55:45;;;;;;;12.02;9.80;;;;;;;21.09;70.54;100150.59;5071643;28;20045;-81
2021/09/10 00:58:13;;;;;;;10.85;8.90;;;;;;;21.06;70.56;100148.16;5064239;28;20091;-80
2021/09/10 01:00:40;;;;;;;13.10;9.27;;;;;;;21.09;70.66;100161.34;5068842;28;20429;-81
2021/09/10 01:03:10;;;;;;;10.07;8.77;;;;;;;21.09;70.85;100157.81;5063434;28;20057;-81
2021/09/10 01:05:37;;;;;;;14.10;9.88;;;;;;;21.07;70.88;100152.56;5068342;28;20060;-81
2021/09/10 01:08:06;;;;;;;12.60;9.57;;;;;;;21.05;70.91;100151.84;5050696;28;20048;-80
2021/09/10 01:10:33;;;;;;;13.77;10.48;;;;;;;21.04;71.10;100152.84;5070724;28;20049;-80
2021/09/10 01:13:10;;;;;;;11.50;9.25;;;;;;;21.01;71.09;100159.38;5063783;28;20060;-80
2021/09/10 01:15:39;;;;;;;10.25;9.18;;;;;;;21.00;71.30;100159.50;5066544;28;20571;-80
2021/09/10 01:18:05;;;;;;;12.02;9.65;;;;;;;20.99;71.32;100155.13;5073719;28;20335;-80
2021/09/10 01:20:32;;;;;;;12.10;9.43;;;;;;;20.97;71.34;100151.72;5071331;28;20037;-80
2021/09/10 01:22:59;;;;;;;10.85;9.20;;;;;;;20.99;71.34;100152.41;5053620;28;20053;-80
2021/09/10 01:25:26;;;;;;;12.38;10.07;;;;;;;20.98;71.20;100159.66;5076813;28;20045;-80
2021/09/10 01:27:58;;;;;;;12.80;9.60;;;;;;;20.98;71.40;100150.72;5052969;28;20141;-80
2021/09/10 01:30:29;;;;;;;11.65;9.27;;;;;;;20.96;71.51;100152.69;5065275;28;20076;-80
2021/09/10 01:32:57;;;;;;;11.82;9.82;;;;;;;20.94;71.66;100152.00;5080138;28;20044;-80
2021/09/10 01:35:24;;;;;;;13.50;10.13;;;;;;;20.93;71.76;100159.25;5082253;28;20041;-80
2021/09/10 01:37:50;;;;;;;12.00;9.65;;;;;;;20.93;71.90;100155.72;5053287;28;20220;-81
2021/09/10 01:40:18;;;;;;;12.77;10.25;;;;;;;20.91;71.67;100158.53;5066058;28;20132;-81
2021/09/10 01:42:45;;;;;;;11.43;9.38;;;;;;;20.89;71.86;100154.28;5045353;28;20128;-81
2021/09/10 01:45:15;;;;;;;12.38;10.07;;;;;;;20.86;71.96;100158.13;5079964;28;20091;-81
2021/09/10 01:47:42;;;;;;;11.63;8.70;;;;;;;20.86;71.61;100166.19;5075405;28;20048;-81
2021/09/10 01:50:11;;;;;;;10.80;9.23;;;;;;;20.86;71.22;100160.81;5069469;28;20044;-81
2021/09/10 01:52:38;;;;;;;13.82;9.52;;;;;;;20.84;70.54;100157.41;5069099;28;20048;-81
2021/09/10 01:55:07;;;;;;;10.52;9.07;;;;;;;20.82;70.54;100155.84;5072813;28;20381;-81
2021/09/10 01:57:34;;;;;;;15.32;10.05;;;;;;;20.80;70.77;100158.66;5068541;28;20041;-80
2021/09/10 02:00:03;;;;;;;11.95;9.15;;;;;;;20.79;70.74;100156.13;5070835;28;20056;-80
2021/09/10 02:02:30;;;;;;;10.88;9.65;;;;;;;20.76;71.10;100159.97;5071156;28;20052;-80
2021/09/10 02:04:58;;;;;;;13.85;9.88;;;;;;;20.70;70.61;100157.00;5077293;28;20051;-80
2021/09/10 02:07:25;;;;;;;14.02;9.98;;;;;;;20.69;70.93;100160.66;5074975;28;20052;-81
2021/09/10 02:09:52;;;;;;;11.55;10.13;;;;;;;20.66;70.59;100154.56;5070193;28;20052;-80
2021/09/10 02:12:19;;;;;;;12.63;9.60;;;;;;;20.65;70.78;100160.94;5079844;28;20047;-80
2021/09/10 02:14:45;;;;;;;11.50;9.80;;;;;;;20.63;70.76;100156.69;5071470;28;20054;-80
2021/09/10 02:17:12;;;;;;;12.52;9.48;;;;;;;20.63;70.78;100157.53;5058938;28;20072;-80
2021/09/10 02:19:39;;;;;;;11.20;9.45;;;;;;;20.61;70.94;100161.41;5070400;28;20468;-80
2021/09/10 02:22:08;;;;;;;11.23;9.55;;;;;;;20.59;70.86;100161.53;5072762;28;20117;-80
2021/09/10 02:24:34;;;;;;;11.25;9.13;;;;;;;20.56;71.12;100156.44;5052941;28;20067;-81
2021/09/10 02:27:01;;;;;;;11.98;9.82;;;;;;;20.54;70.97;100162.94;5068477;28;20064;-81
2021/09/10 02:29:29;;;;;;;10.73;9.63;;;;;;;20.50;71.03;100165.06;5047994;28;20045;-80
2021/09/10 02:31:56;;;;;;;11.15;9.10;;;;;;;20.48;71.34;100168.88;5068514;28;20055;-80
2021/09/10 02:34:25;;;;;;;10.68;9.45;;;;;;;20.47;71.06;100161.78;5071164;28;20044;-80
2021/09/10 02:36:52;;;;;;;11.30;9.20;;;;;;;20.45;71.05;100167.34;5070765;28;20055;-81
2021/09/10 02:39:19;;;;;;;11.88;9.60;;;;;;;20.43;71.25;100160.41;5057666;28;20147;-81
2021/09/10 02:41:45;;;;;;;11.82;9.50;;;;;;;20.43;71.38;100163.94;5068320;28;20048;-81
2021/09/10 02:44:12;;;;;;;12.75;9.13;;;;;;;20.44;71.51;100168.31;5070671;28;20040;-81
2021/09/10 02:46:39;;;;;;;10.32;9.23;;;;;;;20.44;71.20;100165.63;5072933;28;20080;-80
2021/09/10 02:49:18;;;;;;;12.85;8.35;;;;;;;20.46;71.16;100160.13;5068386;28;20907;-81
2021/09/10 02:51:46;;;;;;;10.77;9.13;;;;;;;20.48;71.10;100166.19;5073606;28;20056;-80
2021/09/10 02:54:13;;;;;;;10.52;8.98;;;;;;;20.49;70.76;100166.03;5071109;28;20040;-81
2021/09/10 02:56:41;;;;;;;11.95;9.75;;;;;;;20.47;71.39;100165.31;5067962;28;20052;-80
2021/09/10 02:59:08;;;;;;;13.30;9.50;;;;;;;20.48;70.76;100164.34;5077300;28;20040;-79
2021/09/10 03:01:35;;;;;;;10.60;9.50;;;;;;;20.46;71.08;100160.94;5077249;28;20048;-79
2021/09/10 03:04:03;;;;;;;13.13;9.45;;;;;;;20.44;71.27;100165.63;5071060;28;20056;-79
2021/09/10 03:06:30;;;;;;;12.52;9.70;;;;;;;20.45;71.17;100161.97;5074902;28;20048;-80
2021/09/10 03:08:57;;;;;;;10.55;9.23;;;;;;;20.45;71.19;100167.34;5065015;28;20154;-80
2021/09/10 03:11:24;;;;;;;10.07;9.07;;;;;;;20.44;70.99;100168.31;5070890;28;20074;-80
2021/09/10 03:13:52;;;;;;;11.18;9.52;;;;;;;20.45;70.91;100170.03;5053909;28;20902;-81
2021/09/10 03:16:19;;;;;;;10.65;9.43;;;;;;;20.43;70.86;100160.41;5069129;28;20268;-81
2021/09/10 03:18:46;;;;;;;11.32;9.45;;;;;;;20.42;71.05;100162.25;5070156;28;20123;-81
2021/09/10 03:21:13;;;;;;;10.98;9.57;;;;;;;20.43;71.18;100161.25;5072282;28;20120;-81
2021/09/10 03:23:39;;;;;;;9.80;8.80;;;;;;;20.40;71.25;100150.75;5070530;28;20052;-81
2021/09/10 03:26:09;;;;;;;10.48;8.80;;;;;;;20.41;71.21;100160.53;5069283;28;20087;-81
2021/09/10 03:28:35;;;;;;;11.48;8.80;;;;;;;20.41;71.06;100160.53;5071529;28;20056;-81
2021/09/10 03:31:02;;;;;;;10.48;9.38;;;;;;;20.38;71.09;100163.50;5053480;28;20048;-81
2021/09/10 03:33:29;;;;;;;10.10;9.10;;;;;;;20.37;71.38;100158.25;5073938;28;20045;-81
2021/09/10 03:35:56;;;;;;;10.88;9.57;;;;;;;20.39;70.90;100162.50;5075005;28;20118;-81
2021/09/10 03:38:23;;;;;;;12.05;9.98;;;;;;;20.38;71.09;100157.28;5077450;28;20055;-81
2021/09/10 03:40:49;;;;;;;10.57;9.43;;;;;;;20.37;71.05;100161.78;5061629;28;20052;-81
2021/09/10 03:43:16;;;;;;;12.68;9.43;;;;;;;20.37;71.67;100156.41;5080984;28;20071;-81
2021/09/10 03:45:44;;;;;;;10.43;9.30;;;;;;;20.35;71.29;100155.66;5075595;28;20053;-81
2021/09/10 03:48:10;;;;;;;11.48;9.32;;;;;;;20.33;71.29;100149.56;5081024;28;20052;-81
2021/09/10 03:50:37;;;;;;;10.00;9.00;;;;;;;20.31;71.45;100151.56;5071469;28;20071;-81
2021/09/10 03:53:04;;;;;;;10.35;9.23;;;;;;;20.31;71.71;100148.88;5069647;28;20049;-81
2021/09/10 03:55:30;;;;;;;11.15;9.00;;;;;;;20.28;71.83;100154.56;5065481;28;20131;-81
2021/09/10 03:57:57;;;;;;;10.27;9.18;;;;;;;20.27;71.92;100148.31;5063671;28;20049;-81
2021/09/10 04:00:24;;;;;;;14.52;9.93;;;;;;;20.27;71.98;100152.84;5053334;28;20045;-81
2021/09/10 04:02:53;;;;;;;11.68;9.43;;;;;;;20.25;72.10;100152.97;5066777;28;20056;-81
2021/09/10 04:05:20;;;;;;;10.65;9.23;;;;;;;20.24;72.24;100153.97;5047914;28;20052;-81
2021/09/10 04:07:48;;;;;;;11.23;9.73;;;;;;;20.24;72.38;100158.50;5068523;28;20083;-81
2021/09/10 04:10:15;;;;;;;11.65;9.40;;;;;;;20.25;72.34;100163.75;5067760;28;20118;-81
2021/09/10 04:12:42;;;;;;;11.68;9.52;;;;;;;20.23;71.93;100157.66;5074582;28;20086;-81
2021/09/10 04:15:09;;;;;;;11.15;9.70;;;;;;;20.20;72.36;100157.91;5068201;28;20059;-81
2021/09/10 04:17:36;;;;;;;11.23;9.50;;;;;;;20.18;72.46;100159.03;5074369;28;20120;-81
2021/09/10 04:20:03;;;;;;;10.68;9.27;;;;;;;20.14;72.58;100157.66;5070274;28;20400;-81
2021/09/10 04:22:30;;;;;;;11.48;9.48;;;;;;;20.12;72.94;100162.31;5076470;28;20404;-81
2021/09/10 04:24:56;;;;;;;11.85;9.30;;;;;;;20.08;73.12;100158.19;5072590;28;20492;-81
2021/09/10 04:27:23;;;;;;;11.65;10.30;;;;;;;20.06;73.31;100165.53;5075920;28;20044;-81
2021/09/10 04:29:50;;;;;;;10.98;9.43;;;;;;;20.04;73.73;100164.81;5077415;28;20049;-81
2021/09/10 04:32:17;;;;;;;10.38;9.23;;;;;;;20.02;73.72;100166.78;5082329;28;20041;-81
2021/09/10 04:34:45;;;;;;;10.90;9.77;;;;;;;20.01;73.62;100168.63;5076719;28;20072;-81
2021/09/10 04:37:13;;;;;;;10.77;9.68;;;;;;;20.01;73.98;100165.94;5075704;28;20045;-81
2021/09/10 04:39:41;;;;;;;11.40;10.10;;;;;;;20.01;74.10;100167.78;5071665;28;20467;-80
2021/09/10 04:42:08;;;;;;;12.00;9.57;;;;;;;19.99;74.27;100170.59;5079687;28;20044;-81
2021/09/10 04:44:37;;;;;;;11.30;9.77;;;;;;;19.96;74.80;100166.38;5082830;28;20131;-82
2021/09/10 04:47:03;;;;;;;12.98;10.43;;;;;;;19.95;74.54;100159.28;5071973;28;20051;-81
2021/09/10 04:49:31;;;;;;;11.30;10.10;;;;;;;19.92;74.68;100159.56;5065655;28;20040;-81
2021/09/10 04:51:58;;;;;;;12.35;10.25;;;;;;;19.91;74.81;100157.88;5078036;28;20045;-81
2021/09/10 04:54:24;;;;;;;13.50;10.52;;;;;;;19.90;74.87;100158.84;5098363;28;20111;-81
2021/09/10 04:56:52;;;;;;;10.93;9.80;;;;;;;19.92;75.31;100164.09;5083961;28;20453;-80
2021/09/10 04:59:19;;;;;;;13.00;10.00;;;;;;;19.94;74.85;100168.34;5093408;28;20100;-81
2021/09/10 05:01:47;;;;;;;15.02;10.60;;;;;;;19.94;74.59;100162.13;5080434;28;20112;-81
2021/09/10 05:04:14;;;;;;;11.63;10.30;;;;;;;19.94;74.62;100156.75;5085548;28;20041;-82
2021/09/10 05:06:41;;;;;;;12.40;10.00;;;;;;;20.00;74.79;100171.44;5066397;28;20053;-81
2021/09/10 05:09:08;;;;;;;10.70;9.60;;;;;;;20.00;74.18;100160.69;5077342;28;20058;-81
2021/09/10 05:11:34;;;;;;;11.90;10.07;;;;;;;20.03;74.42;100163.13;5065633;28;20079;-82
2021/09/10 05:14:01;;;;;;;12.27;10.25;;;;;;;20.03;74.73;100165.81;5063781;28;20037;-81
2021/09/10 05:16:28;;;;;;;11.50;10.02;;;;;;;20.03;74.82;100173.88;5082714;28;20050;-81
2021/09/10 05:18:55;;;;;;;11.85;9.80;;;;;;;20.03;74.53;100177.41;5090536;28;20139;-82
2021/09/10 05:21:21;;;;;;;13.05;10.45;;;;;;;20.04;74.48;100179.09;5082744;28;20135;-82
2021/09/10 05:23:50;;;;;;;13.52;9.90;;;;;;;20.04;74.32;100178.25;5090001;28;20052;-81
2021/09/10 05:26:16;;;;;;;12.77;9.95;;;;;;;20.02;74.41;100181.09;5086904;28;20163;-80
2021/09/10 05:28:44;;;;;;;12.15;9.93;;;;;;;20.02;74.47;100182.91;5064626;28;20691;-79
2021/09/10 05:31:11;;;;;;;14.40;10.32;;;;;;;20.02;74.60;100177.53;5061578;28;20067;-79
2021/09/10 05:33:38;;;;;;;13.13;10.43;;;;;;;20.05;74.47;100196.94;5085449;28;20060;-80
2021/09/10 05:36:05;;;;;;;12.25;10.40;;;;;;;20.02;74.09;100183.75;5092626;28;20105;-80
2021/09/10 05:38:32;;;;;;;11.70;9.55;;;;;;;20.08;74.61;100201.19;5090688;28;20071;-80
2021/09/10 05:40:59;;;;;;;14.25;11.05;;;;;;;20.09;74.58;100203.75;5082065;28;20143;-81
2021/09/10 05:43:29;;;;;;;12.38;10.80;;;;;;;20.10;74.77;100202.75;5074687;28;20047;-80
2021/09/10 05:45:57;;;;;;;15.77;10.95;;;;;;;20.10;74.71;100208.13;5054074;28;20053;-80
2021/09/10 05:48:24;;;;;;;12.88;10.60;;;;;;;20.08;74.74;100196.66;5068599;28;20043;-81
2021/09/10 05:50:52;;;;;;;12.45;10.13;;;;;;;20.08;74.74;100199.34;5067898;28;20048;-81
2021/09/10 05:53:20;;;;;;;12.55;11.13;;;;;;;20.07;74.96;100199.50;5057651;28;20047;-80
2021/09/10 05:55:47;;;;;;;12.15;10.25;;;;;;;20.06;74.93;100208.53;5073142;28;20405;-81
2021/09/10 05:58:13;;;;;;;12.45;10.32;;;;;;;20.06;75.17;100208.53;5068279;28;20112;-80
2021/09/10 06:00:40;;;;;;;13.38;11.75;;;;;;;20.07;75.71;100205.72;5075186;28;20515;-81
2021/09/10 06:03:07;;;;;;;11.40;10.07;;;;;;;20.12;75.89;100205.31;5063621;28;20095;-81
2021/09/10 06:05:36;;;;;;;14.60;11.15;;;;;;;20.15;76.00;100207.69;5065744;28;20102;-80
2021/09/10 06:08:03;;;;;;;13.38;10.90;;;;;;;20.17;75.59;100206.59;5069572;28;20064;-81
2021/09/10 06:10:32;;;;;;;11.43;10.23;;;;;;;20.13;74.78;100205.19;5068630;28;20056;-81
2021/09/10 06:13:00;;;;;;;14.80;12.07;;;;;;;20.09;74.91;100208.28;5067368;28;20135;-82
2021/09/10 06:15:27;;;;;;;13.75;11.13;;;;;;;20.07;75.11;100210.25;5074615;28;20041;-81
2021/09/10 06:17:54;;;;;;;12.95;11.18;;;;;;;20.00;75.43;100203.69;5076679;28;20048;-81
2021/09/10 06:20:23;;;;;;;15.35;11.70;;;;;;;20.03;75.98;100217.72;5081385;28;20033;-79
2021/09/10 06:22:49;;;;;;;16.65;10.77;;;;;;;20.03;76.20;100206.13;5081607;28;20112;-80
2021/09/10 06:25:16;;;;;;;12.25;10.95;;;;;;;20.09;75.78;100209.13;5071044;28;20132;-80
2021/09/10 06:27:43;;;;;;;13.90;10.65;;;;;;;20.13;76.01;100212.41;5084400;28;20079;-81
2021/09/10 06:30:10;;;;;;;14.23;11.40;;;;;;;20.19;75.22;100217.19;5089319;28;20125;-81
2021/09/10 06:32:37;;;;;;;13.73;10.75;;;;;;;20.19;75.29;100212.69;5092608;28;20112;-81
2021/09/10 06:35:05;;;;;;;11.52;10.32;;;;;;;20.20;75.35;100213.53;5085262;28;20454;-80
2021/09/10 06:37:33;;;;;;;17.47;11.77;;;;;;;20.22;74.89;100216.94;5077237;28;20125;-81
2021/09/10 06:40:04;;;;;;;14.27;11.13;;;;;;;20.23;74.80;100210.56;5080519;28;20032;-80
2021/09/10 06:42:31;;;;;;;14.13;10.73;;;;;;;20.24;74.79;100218.50;5085315;28;20863;-81
2021/09/10 06:44:58;;;;;;;14.85;11.63;;;;;;;20.23;74.41;100208.72;5086723;28;20049;-81
2021/09/10 06:47:25;;;;;;;12.55;11.25;;;;;;;20.27;74.41;100212.00;5086896;28;20032;-81
2021/09/10 06:49:53;;;;;;;13.40;11.63;;;;;;;20.30;74.95;100212.56;5087467;28;20075;-81
2021/09/10 06:52:19;;;;;;;11.68;10.48;;;;;;;20.30;74.46;100206.34;5081963;28;20045;-81
2021/09/10 06:54:46;;;;;;;13.13;10.55;;;;;;;20.30;74.30;100212.56;5089021;28;20104;-81
2021/09/10 06:57:13;;;;;;;12.88;10.85;;;;;;;20.34;74.66;100213.13;5088490;28;20040;-81
2021/09/10 06:59:41;;;;;;;12.65;10.90;;;;;;;20.36;73.97;100216.56;5085312;28;20530;-81
2021/09/10 07:02:07;;;;;;;12.82;10.18;;;;;;;20.40;74.49;100218.00;5086472;28;20060;-81
2021/09/10 07:04:35;;;;;;;14.23;11.13;;;;;;;20.50;74.40;100220.69;5098014;28;20479;-81
2021/09/10 07:07:03;;;;;;;12.52;10.85;;;;;;;20.61;74.11;100224.13;5096739;28;20056;-81
2021/09/10 07:09:31;;;;;;;15.02;10.88;;;;;;;20.74;73.69;100228.38;5067056;28;20115;-81
2021/09/10 07:11:59;;;;;;;15.60;10.57;;;;;;;20.88;72.97;100227.94;5082974;28;20044;-81
2021/09/10 07:14:25;;;;;;;13.02;11.07;;;;;;;20.99;72.04;100225.09;5079532;28;20045;-81
2021/09/10 07:16:52;;;;;;;14.63;11.90;;;;;;;21.13;71.79;100232.75;5076130;28;20056;-81
2021/09/10 07:19:18;;;;;;;11.98;10.63;;;;;;;21.39;71.42;100240.28;5084447;28;20100;-81
2021/09/10 07:21:46;;;;;;;12.75;10.95;;;;;;;21.64;69.18;100232.38;5090282;28;20049;-82
2021/09/10 07:25:05;;;;;;;15.50;11.27;;;;;;;21.74;68.22;100243.13;5073347;28;20191;-82
2021/09/10 07:27:32;;;;;;;13.95;10.77;;;;;;;21.88;68.86;100245.34;5072815;28;20040;-81
2021/09/10 07:29:58;;;;;;;14.70;11.00;;;;;;;22.23;67.66;100239.25;5080968;28;20555;-81
2021/09/10 07:32:25;;;;;;;13.48;10.35;;;;;;;22.59;66.07;100244.72;5072439;28;20377;-81
2021/09/10 07:34:53;;;;;;;11.65;10.23;;;;;;;22.81;64.73;100241.63;5077119;28;20139;-81
2021/09/10 07:37:26;;;;;;;14.68;9.95;;;;;;;22.93;63.84;100242.22;5074160;28;20131;-81
2021/09/10 07:39:54;;;;;;;14.57;10.40;;;;;;;22.96;63.80;100242.75;5064414;28;20044;-81
2021/09/10 07:42:22;;;;;;;13.52;10.13;;;;;;;23.02;64.63;100244.81;5080436;28;20575;-81
2021/09/10 07:44:49;;;;;;;14.07;10.18;;;;;;;23.17;64.43;100255.94;5078640;28;20052;-81
2021/09/10 07:47:17;;;;;;;13.07;9.88;;;;;;;23.11;63.56;100259.28;5081907;28;20112;-81
2021/09/10 07:49:45;;;;;;;13.93;9.93;;;;;;;23.04;64.35;100264.44;5081228;28;20066;-81
2021/09/10 07:52:12;;;;;;;10.50;9.38;;;;;;;22.92;64.05;100267.53;5056908;28;20059;-81
2021/09/10 07:54:39;;;;;;;11.80;9.98;;;;;;;22.65;64.06;100271.97;5080766;28;20048;-81
2021/09/10 07:57:20;;;;;;;12.10;9.68;;;;;;;22.52;65.11;100267.91;5075510;28;20041;-81
2021/09/10 07:59:51;;;;;;;13.80;9.82;;;;;;;22.41;65.64;100274.38;5059047;28;20048;-81
2021/09/10 08:02:17;;;;;;;11.80;10.18;;;;;;;22.39;65.73;100276.38;5057273;28;20109;-81
2021/09/10 08:04:46;;;;;;;13.88;9.60;;;;;;;22.39;65.69;100270.97;5081326;28;20068;-81
2021/09/10 08:07:13;;;;;;;12.88;9.55;;;;;;;22.43;65.42;100271.53;5074875;28;20132;-81
2021/09/10 08:09:56;;;;;;;13.20;9.23;;;;;;;22.46;65.35;100266.69;5074338;28;20454;-81
2021/09/10 08:12:23;;;;;;;10.00;8.57;;;;;;;22.49;65.33;100270.94;5075529;28;20040;-81
2021/09/10 08:14:49;;;;;;;13.50;8.27;;;;;;;22.56;64.32;100269.31;5054869;28;20136;-81
2021/09/10 08:17:18;;;;;;;10.35;8.82;;;;;;;22.65;65.44;100271.97;5079100;28;20040;-81
2021/09/10 08:19:46;;;;;;;11.27;7.97;;;;;;;22.82;65.59;100272.16;5070195;28;20068;-81
2021/09/10 08:22:12;;;;;;;10.38;8.40;;;;;;;22.93;63.45;100277.31;5070060;28;20068;-81
2021/09/10 08:24:54;;;;;;;10.95;7.97;;;;;;;23.02;63.46;100269.13;5073067;28;20060;-81
2021/09/10 08:27:25;;;;;;;9.82;8.25;;;;;;;23.05;62.54;100262.56;5070413;28;20409;-82
2021/09/10 08:29:53;;;;;;;12.43;8.15;;;;;;;23.12;63.03;100274.47;5072526;28;20062;-81
2021/09/10 08:32:20;;;;;;;7.95;7.15;;;;;;;23.25;62.37;100274.06;5063679;28;20156;-82
2021/09/10 08:34:46;;;;;;;10.45;7.57;;;;;;;23.35;62.05;100275.66;5082959;28;20057;-82
2021/09/10 08:37:13;;;;;;;10.00;8.23;;;;;;;23.44;62.29;100280.16;5081507;28;20079;-82
2021/09/10 08:39:40;;;;;;;10.05;7.50;;;;;;;23.52;62.15;100292.03;5074301;28;20051;-82
2021/09/10 08:42:07;;;;;;;11.23;7.35;;;;;;;23.63;61.29;100283.66;5076064;28;20056;-81
2021/09/10 08:44:37;;;;;;;9.25;8.35;;;;;;;23.62;60.51;100287.38;5087519;28;20055;-81
2021/09/10 08:47:08;;;;;;;9.75;7.75;;;;;;;23.60;61.46;100289.41;5061190;28;20052;-81
2021/09/10 08:49:35;;;;;;;8.32;7.25;;;;;;;23.59;61.39;100293.13;5076280;28;20123;-81
2021/09/10 08:52:02;;;;;;;8.70;7.45;;;;;;;23.56;61.69;100285.31;5071840;28;20045;-82
2021/09/10 08:54:29;;;;;;;9.30;7.57;;;;;;;23.56;61.82;100282.63;5065129;28;20048;-82
2021/09/10 08:56:56;;;;;;;14.00;7.43;;;;;;;23.51;61.33;100287.59;5070938;28;20060;-83
2021/09/10 08:59:23;;;;;;;10.35;7.45;;;;;;;23.37;62.27;100281.75;5076470;28;20681;-82
2021/09/10 09:01:58;;;;;;;8.60;7.70;;;;;;;23.31;62.63;100282.38;5083191;28;20084;-81
2021/09/10 09:04:35;;;;;;;8.63;7.72;;;;;;;23.31;62.50;100289.63;5073009;28;20049;-81
2021/09/10 09:07:07;;;;;;;8.88;7.55;;;;;;;23.26;62.77;100287.44;5071486;28;20052;-81
2021/09/10 09:09:46;;;;;;;9.52;7.65;;;;;;;23.24;62.53;100284.03;5076895;28;20081;-80
2021/09/10 09:12:29;;;;;;;8.50;7.27;;;;;;;23.25;62.75;100296.53;5086195;28;20028;-82
2021/09/10 09:15:05;;;;;;;8.32;7.53;;;;;;;23.31;62.53;100295.03;5089263;28;20486;-81
2021/09/10 09:17:36;;;;;;;10.77;7.60;;;;;;;23.44;61.67;100284.69;5083230;28;20055;-82
2021/09/10 09:20:24;;;;;;;8.50;7.68;;;;;;;23.47;61.71;100288.91;5091078;28;20055;-82
2021/09/10 09:23:03;;;;;;;11.90;8.18;;;;;;;23.54;62.08;100293.59;5078120;28;20049;-82
2021/09/10 09:25:40;;;;;;;13.32;8.15;;;;;;;23.60;61.42;100289.41;5075022;28;20129;-82
2021/09/10 09:28:29;;;;;;;9.70;8.13;;;;;;;23.71;61.47;100294.53;5071801;28;20052;-82
2021/09/10 09:31:05;;;;;;;9.18;8.23;;;;;;;23.78;60.82;100288.34;5066972;28;20132;-80
2021/09/10 09:33:40;;;;;;;9.50;7.97;;;;;;;23.80;60.34;100288.19;5074638;28;20095;-81
2021/09/10 09:36:11;;;;;;;10.10;8.30;;;;;;;23.85;60.60;100293.97;5071335;28;20049;-82
2021/09/10 09:38:40;;;;;;;8.45;7.43;;;;;;;23.83;60.59;100285.16;5074880;28;20724;-83
2021/09/10 09:41:16;;;;;;;11.20;8.20;;;;;;;23.75;60.55;100274.31;5061208;28;20044;-82
2021/09/10 09:43:49;;;;;;;9.93;7.28;;;;;;;23.89;60.18;100279.13;5074080;28;20500;-83
2021/09/10 09:46:20;;;;;;;7.55;6.53;;;;;;;24.01;59.46;100285.09;5079456;28;20040;-81
2021/09/10 09:48:50;;;;;;;9.18;6.40;;;;;;;24.17;59.61;100289.75;5082675;28;20048;-81
2021/09/10 09:51:22;;;;;;;11.40;6.60;;;;;;;24.29;59.26;100281.19;5070929;28;20041;-83
2021/09/10 09:53:52;;;;;;;8.88;6.60;;;;;;;24.40;58.39;100278.19;5083613;28;20104;-82
2021/09/10 09:56:25;;;;;;;6.75;6.00;;;;;;;24.51;58.37;100282.47;5101725;28;20103;-81
2021/09/10 09:58:53;;;;;;;9.85;6.22;;;;;;;24.60;57.65;100286.03;5093221;28;20041;-81
2021/09/10 10:01:23;;;;;;;9.38;6.57;;;;;;;24.67;56.80;100279.81;5083690;28;20116;-82
2021/09/10 10:03:53;;;;;;;6.50;5.90;;;;;;;24.77;57.19;100283.22;5070515;28;20044;-82
2021/09/10 10:06:25;;;;;;;7.45;5.70;;;;;;;24.92;57.40;100287.97;5083105;28;20104;-82
2021/09/10 10:12:34;;;;;;;7.32;6.53;;;;;;;25.00;55.83;100288.03;5079499;28;20035;-82
2021/09/10 10:15:19;;;;;;;7.43;6.65;;;;;;;25.03;56.25;100290.38;5087859;28;20128;-83
2021/09/10 10:17:47;;;;;;;9.98;7.18;;;;;;;25.11;55.71;100287.69;5092616;28;20032;-83
2021/09/10 10:20:46;;;;;;;8.20;7.40;;;;;;;25.15;56.29;100284.50;5097326;28;20143;-83
2021/09/10 10:23:44;;;;;;;8.80;6.30;;;;;;;25.14;56.06;100288.22;5078399;28;20157;-82
2021/09/10 10:26:33;;;;;;;9.20;6.47;;;;;;;25.09;55.80;100284.31;5071276;28;20049;-82
2021/09/10 10:29:05;;;;;;;9.05;6.57;;;;;;;25.18;56.39;100284.13;5075061;28;20048;-82
2021/09/10 10:31:55;;;;;;;7.28;6.05;;;;;;;25.44;55.84;100283.97;5075103;28;20059;-81
2021/09/10 10:34:23;;;;;;;7.35;6.57;;;;;;;25.58;55.36;100279.72;5069571;28;20044;-82
2021/09/10 10:36:50;;;;;;;7.53;6.38;;;;;;;25.65;54.50;100285.34;5079197;28;20051;-82
2021/09/10 10:39:29;;;;;;;7.85;6.65;;;;;;;25.46;55.17;100279.25;5075516;28;20060;-82
2021/09/10 10:42:02;;;;;;;7.00;6.30;;;;;;;25.39;54.86;100280.91;5089809;28;20055;-81
2021/09/10 10:44:45;;;;;;;7.43;5.85;;;;;;;25.22;55.32;100284.66;5074404;28;20064;-81
2021/09/10 10:47:12;;;;;;;10.35;6.78;;;;;;;25.14;55.82;100276.53;5074729;28;20481;-82
2021/09/10 10:49:47;;;;;;;7.63;6.35;;;;;;;25.07;56.24;100278.19;5065948;28;20051;-82
2021/09/10 10:52:23;;;;;;;7.80;6.45;;;;;;;25.08;56.36;100280.75;5079017;28;20050;-82
2021/09/10 10:55:18;;;;;;;7.88;6.15;;;;;;;25.01;55.75;100276.19;5061909;28;20773;-82
2021/09/10 10:57:53;;;;;;;6.47;5.82;;;;;;;24.90;55.92;100271.03;5074854;28;20542;-82
2021/09/10 11:00:29;;;;;;;6.82;5.75;;;;;;;24.89;56.00;100267.47;5075870;28;20051;-82
2021/09/10 11:03:16;;;;;;;10.77;5.60;;;;;;;24.95;55.54;100271.44;5078062;28;20075;-82
2021/09/10 11:05:45;;;;;;;7.05;5.57;;;;;;;25.00;55.38;100267.22;5077498;28;20480;-82
2021/09/10 11:08:35;;;;;;;8.15;5.35;;;;;;;25.03;55.26;100257.88;5057452;28;20054;-82
2021/09/10 11:11:03;;;;;;;6.72;5.38;;;;;;;25.06;55.15;100263.81;5076128;28;20052;-81
2021/09/10 11:13:30;;;;;;;7.03;5.70;;;;;;;25.04;55.80;100260.41;5085038;28;20108;-82
2021/09/10 11:15:57;;;;;;;8.13;5.57;;;;;;;25.13;55.75;100261.28;5086269;28;20344;-81
2021/09/10 11:18:26;;;;;;;11.10;5.38;;;;;;;25.22;56.07;100257.53;5092707;28;20029;-80
2021/09/10 11:20:54;;;;;;;6.88;5.70;;;;;;;25.28;55.39;100262.31;5095060;28;20039;-81
2021/09/10 11:23:27;;;;;;;7.63;5.60;;;;;;;25.20;55.32;100265.00;5087124;28;20055;-80
2021/09/10 11:25:56;;;;;;;8.25;5.72;;;;;;;25.12;55.75;100268.56;5075317;28;20151;-81
2021/09/10 11:28:25;;;;;;;7.10;5.05;;;;;;;24.99;54.93;100268.22;5051513;28;20041;-81
2021/09/10 11:30:52;;;;;;;8.00;4.90;;;;;;;24.92;54.63;100266.31;5081548;28;20052;-81